Time;durP1;ratioP1;P1;durP2;ratioP2;P2;SDS_P1;SDS_P2;PMS_P1;PMS_P2;Temp;Humidity;BMP_temperature;BMP_pressure;BME280_temperature;BME280_humidity;BME280_pressure;Samples;Min_cycle;Max_cycle;Signal;HPM_P1;HPM_P2
2023/06/15 00:01:23;;;;;;;3.90;3.00;;;18.10;99.90;;;;;;5091217;28;20302;-60
2023/06/15 00:03:52;;;;;;;3.00;2.80;;;18.10;99.90;;;;;;5093865;28;20236;-60
2023/06/15 00:06:20;;;;;;;2.90;2.70;;;18.10;99.90;;;;;;5089028;28;20577;-60
2023/06/15 00:08:48;;;;;;;3.60;2.90;;;18.10;99.90;;;;;;5066941;28;20200;-60
2023/06/15 00:11:17;;;;;;;5.20;3.07;;;18.10;99.90;;;;;;5091862;28;20685;-60
2023/06/15 00:13:47;;;;;;;3.00;2.80;;;18.10;99.90;;;;;;5090760;28;20215;-60
2023/06/15 00:16:18;;;;;;;2.90;2.70;;;18.00;99.90;;;;;;5077693;28;20207;-60
2023/06/15 00:18:48;;;;;;;6.17;2.93;;;18.00;99.90;;;;;;5092072;28;20240;-59
2023/06/15 00:21:16;;;;;;;2.93;2.80;;;18.00;99.90;;;;;;5088938;28;20236;-59
2023/06/15 00:23:46;;;;;;;5.60;2.87;;;18.00;99.90;;;;;;5094732;28;20206;-60
2023/06/15 00:26:14;;;;;;;6.07;3.13;;;17.90;99.90;;;;;;5093719;28;20243;-60
2023/06/15 00:28:46;;;;;;;3.30;3.00;;;17.80;99.90;;;;;;5094085;28;20712;-60
2023/06/15 00:31:14;;;;;;;4.77;3.10;;;17.80;99.90;;;;;;5088860;28;20586;-60
2023/06/15 00:33:42;;;;;;;3.57;3.17;;;17.70;99.90;;;;;;5075843;28;20227;-60
2023/06/15 00:36:12;;;;;;;3.07;2.87;;;17.60;99.90;;;;;;5093686;28;20256;-59
2023/06/15 00:38:40;;;;;;;2.90;2.80;;;17.70;99.90;;;;;;5092516;28;20195;-60
2023/06/15 00:41:09;;;;;;;4.73;3.03;;;17.60;99.90;;;;;;5093484;28;20216;-60
2023/06/15 00:43:37;;;;;;;3.13;3.03;;;17.60;99.90;;;;;;5093413;28;20221;-60
2023/06/15 00:46:06;;;;;;;3.63;3.37;;;17.50;99.90;;;;;;5077928;28;20223;-60
2023/06/15 00:48:36;;;;;;;3.60;3.30;;;17.40;99.90;;;;;;5093014;28;20224;-60
2023/06/15 00:51:05;;;;;;;3.17;3.00;;;17.30;99.90;;;;;;5091714;28;20234;-60
2023/06/15 00:53:33;;;;;;;4.30;3.13;;;17.20;99.90;;;;;;5070796;28;20224;-60
2023/06/15 00:56:03;;;;;;;3.23;2.90;;;17.10;99.90;;;;;;5067760;28;20218;-60
2023/06/15 00:58:31;;;;;;;6.10;3.33;;;17.00;99.90;;;;;;5065284;28;20218;-60
2023/06/15 01:01:00;;;;;;;4.50;3.50;;;16.90;99.90;;;;;;5074240;28;20235;-60
2023/06/15 01:03:30;;;;;;;3.47;3.20;;;16.90;99.90;;;;;;5085796;28;20216;-60
2023/06/15 01:06:00;;;;;;;3.17;3.07;;;16.80;99.90;;;;;;5089174;28;20201;-60
2023/06/15 01:08:29;;;;;;;3.07;2.97;;;16.70;99.90;;;;;;5088327;28;20222;-60
2023/06/15 01:10:57;;;;;;;3.73;3.47;;;16.70;99.90;;;;;;5093421;28;20213;-60
2023/06/15 01:13:27;;;;;;;3.30;3.17;;;16.70;99.90;;;;;;5091836;28;20236;-60
2023/06/15 01:15:59;;;;;;;3.83;3.53;;;16.60;99.90;;;;;;5085582;28;20218;-60
2023/06/15 01:18:29;;;;;;;3.20;3.00;;;16.50;99.90;;;;;;5072958;28;20709;-60
2023/06/15 01:21:02;;;;;;;3.43;3.13;;;16.50;99.90;;;;;;5074057;28;20236;-60
2023/06/15 01:23:37;;;;;;;3.53;3.23;;;16.50;99.90;;;;;;5075419;28;20231;-60
2023/06/15 01:26:09;;;;;;;3.90;3.60;;;16.50;99.90;;;;;;5092666;28;20228;-60
2023/06/15 01:28:40;;;;;;;5.83;3.60;;;16.40;99.90;;;;;;5090796;28;20235;-60
2023/06/15 01:31:10;;;;;;;3.93;3.60;;;16.30;99.90;;;;;;5080791;28;20270;-60
2023/06/15 01:33:46;;;;;;;6.70;3.40;;;16.30;99.90;;;;;;5081817;28;20219;-60
2023/06/15 01:36:15;;;;;;;4.30;3.60;;;16.20;99.90;;;;;;5084856;28;20199;-60
2023/06/15 01:38:45;;;;;;;3.80;3.40;;;16.20;99.90;;;;;;5092974;28;20829;-60
2023/06/15 01:41:19;;;;;;;3.70;3.40;;;16.10;99.90;;;;;;5073613;28;20225;-60
2023/06/15 01:43:47;;;;;;;3.50;3.20;;;16.10;99.90;;;;;;5081994;28;20228;-59
2023/06/15 01:46:17;;;;;;;3.70;3.50;;;16.10;99.90;;;;;;5077020;28;20224;-60
2023/06/15 01:48:45;;;;;;;3.33;3.10;;;16.10;99.90;;;;;;5092675;28;20223;-59
2023/06/15 01:51:14;;;;;;;4.00;3.70;;;16.10;99.90;;;;;;5083415;28;20203;-60
2023/06/15 01:53:43;;;;;;;3.83;3.47;;;16.10;99.90;;;;;;5089560;28;20189;-60
2023/06/15 01:56:12;;;;;;;4.10;3.70;;;16.10;99.90;;;;;;5087829;28;20670;-60
2023/06/15 01:58:41;;;;;;;5.13;3.33;;;15.90;99.90;;;;;;5089668;28;20212;-60
2023/06/15 02:01:10;;;;;;;4.53;3.93;;;15.90;99.90;;;;;;5091767;28;20227;-60
2023/06/15 02:03:38;;;;;;;3.50;3.30;;;16.00;99.90;;;;;;5083538;28;20215;-60
2023/06/15 02:06:06;;;;;;;4.10;3.77;;;15.90;99.90;;;;;;5086746;28;20202;-60
2023/06/15 02:08:36;;;;;;;3.93;3.30;;;15.90;99.90;;;;;;5085261;28;20237;-60
2023/06/15 02:11:04;;;;;;;4.70;3.70;;;15.80;99.90;;;;;;5092192;28;20217;-60
2023/06/15 02:13:32;;;;;;;3.80;3.57;;;15.70;99.90;;;;;;5088008;28;20314;-60
2023/06/15 02:16:02;;;;;;;4.23;3.83;;;15.70;99.90;;;;;;5090107;28;20229;-60
2023/06/15 02:18:31;;;;;;;3.70;3.53;;;15.70;99.90;;;;;;5081173;28;20224;-60
2023/06/15 02:20:59;;;;;;;4.23;3.57;;;15.60;99.90;;;;;;5089924;28;20232;-60
2023/06/15 02:23:28;;;;;;;4.17;3.90;;;15.60;99.90;;;;;;5091408;28;20226;-60
2023/06/15 02:25:57;;;;;;;4.30;3.80;;;15.50;99.90;;;;;;5092199;28;20227;-60
2023/06/15 02:28:25;;;;;;;3.90;3.80;;;15.50;99.90;;;;;;5087038;28;20223;-60
2023/06/15 02:30:53;;;;;;;4.00;3.70;;;15.50;99.90;;;;;;5086046;28;20221;-60
2023/06/15 02:33:25;;;;;;;4.13;3.70;;;15.50;99.90;;;;;;5092336;28;20217;-60
2023/06/15 02:35:53;;;;;;;4.17;3.87;;;15.40;99.90;;;;;;5088154;28;20188;-60
2023/06/15 02:38:22;;;;;;;3.80;3.60;;;15.40;99.90;;;;;;5079391;28;20211;-60
2023/06/15 02:40:51;;;;;;;4.43;3.93;;;15.30;99.90;;;;;;5087345;28;20223;-60
2023/06/15 02:43:19;;;;;;;5.50;4.27;;;15.30;99.90;;;;;;5088440;28;20211;-60
2023/06/15 02:45:48;;;;;;;4.57;4.17;;;15.30;99.90;;;;;;5091633;28;20748;-60
2023/06/15 02:48:16;;;;;;;5.33;4.47;;;15.10;99.90;;;;;;5082282;28;20211;-59
2023/06/15 02:50:46;;;;;;;4.30;4.00;;;15.10;99.90;;;;;;5088099;28;20542;-60
2023/06/15 02:53:14;;;;;;;7.43;4.60;;;15.00;99.90;;;;;;5090019;28;20227;-60
2023/06/15 02:55:42;;;;;;;4.90;4.60;;;15.00;99.90;;;;;;5090830;28;20216;-60
2023/06/15 02:58:13;;;;;;;8.67;4.07;;;15.00;99.90;;;;;;5079675;28;20585;-60
2023/06/15 03:00:42;;;;;;;5.10;4.53;;;15.00;99.90;;;;;;5086031;28;20219;-60
2023/06/15 03:03:11;;;;;;;5.70;4.40;;;15.00;99.90;;;;;;5090215;28;20193;-60
2023/06/15 03:05:39;;;;;;;5.63;4.80;;;15.00;99.90;;;;;;5089883;28;20203;-60
2023/06/15 03:08:09;;;;;;;5.77;5.10;;;14.90;99.90;;;;;;5082498;28;20215;-60
2023/06/15 03:10:37;;;;;;;5.00;4.50;;;14.90;99.90;;;;;;5095153;28;20215;-60
2023/06/15 03:13:09;;;;;;;5.30;4.50;;;14.90;99.90;;;;;;5091358;28;20665;-60
2023/06/15 03:15:38;;;;;;;5.40;5.00;;;14.80;99.90;;;;;;5094679;28;20215;-59
2023/06/15 03:18:07;;;;;;;5.13;4.63;;;14.80;99.90;;;;;;5082753;28;20184;-60
2023/06/15 03:20:35;;;;;;;5.20;4.80;;;14.80;99.90;;;;;;5089338;28;20774;-59
2023/06/15 03:23:04;;;;;;;5.53;4.93;;;14.70;99.90;;;;;;5086047;28;20219;-60
2023/06/15 03:25:35;;;;;;;5.63;4.93;;;14.70;99.90;;;;;;5087702;28;20230;-60
2023/06/15 03:28:04;;;;;;;9.53;5.40;;;14.70;99.90;;;;;;5084216;28;20228;-60
2023/06/15 03:30:32;;;;;;;5.53;5.03;;;14.70;99.90;;;;;;5094735;28;20223;-59
2023/06/15 03:33:00;;;;;;;6.73;5.33;;;14.60;99.90;;;;;;5085555;28;20626;-60
2023/06/15 03:35:30;;;;;;;6.23;5.50;;;14.60;99.90;;;;;;5057895;28;20216;-60
2023/06/15 03:37:58;;;;;;;6.03;5.60;;;14.60;99.90;;;;;;5060724;28;20212;-59
2023/06/15 03:40:26;;;;;;;6.40;5.70;;;14.60;99.90;;;;;;5079350;28;20301;-59
2023/06/15 03:42:56;;;;;;;5.40;5.10;;;14.50;99.90;;;;;;5093388;28;20215;-60
2023/06/15 03:45:24;;;;;;;7.57;5.40;;;14.50;99.90;;;;;;5093724;28;20299;-59
2023/06/15 03:47:53;;;;;;;5.83;5.30;;;14.50;99.90;;;;;;5095131;28;20204;-60
2023/06/15 03:50:21;;;;;;;6.90;5.23;;;14.50;99.90;;;;;;5075846;28;20224;-60
2023/06/15 03:52:50;;;;;;;6.67;6.07;;;14.50;99.90;;;;;;5078677;28;20216;-60
2023/06/15 03:55:18;;;;;;;8.03;5.50;;;14.50;99.90;;;;;;5093588;28;20224;-60
2023/06/15 03:57:47;;;;;;;5.90;5.30;;;14.50;99.90;;;;;;5094251;28;20215;-60
2023/06/15 04:00:18;;;;;;;7.90;5.43;;;14.50;99.90;;;;;;5093977;28;20198;-60
2023/06/15 04:02:46;;;;;;;7.53;5.90;;;14.50;99.90;;;;;;5079187;28;20203;-60
2023/06/15 04:05:15;;;;;;;5.57;5.17;;;14.50;99.90;;;;;;5077812;28;20230;-60
2023/06/15 04:07:43;;;;;;;6.30;5.47;;;14.60;99.90;;;;;;5094333;28;20235;-60
2023/06/15 04:10:12;;;;;;;10.07;5.80;;;14.60;99.90;;;;;;5094242;28;20223;-60
2023/06/15 04:12:40;;;;;;;8.43;6.50;;;14.60;99.90;;;;;;5094325;28;20215;-59
2023/06/15 04:15:09;;;;;;;6.03;5.63;;;14.70;99.90;;;;;;5084345;28;20233;-59
2023/06/15 04:17:39;;;;;;;7.13;6.00;;;14.60;99.90;;;;;;5094448;28;20192;-60
2023/06/15 04:20:09;;;;;;;10.17;5.93;;;14.60;99.90;;;;;;5091524;28;20769;-59
2023/06/15 04:22:38;;;;;;;12.43;5.73;;;14.70;99.90;;;;;;5093869;28;20239;-60
2023/06/15 04:25:07;;;;;;;6.30;5.80;;;14.70;99.90;;;;;;5089674;28;20218;-60
2023/06/15 04:27:36;;;;;;;6.67;5.93;;;14.70;99.90;;;;;;5085861;28;20219;-60
2023/06/15 04:30:09;;;;;;;9.27;5.97;;;14.80;99.90;;;;;;5089187;28;20242;-60
2023/06/15 04:32:40;;;;;;;7.70;6.00;;;14.80;99.90;;;;;;5093285;28;20234;-60
2023/06/15 04:35:08;;;;;;;11.53;6.30;;;14.90;99.90;;;;;;5093209;28;20215;-60
2023/06/15 04:37:39;;;;;;;9.97;6.53;;;14.90;99.90;;;;;;5082225;28;20547;-60
2023/06/15 04:40:10;;;;;;;6.70;6.10;;;15.00;99.90;;;;;;5083990;28;20217;-60
2023/06/15 04:42:40;;;;;;;8.67;6.07;;;15.10;99.90;;;;;;5083842;28;20218;-60
2023/06/15 04:45:09;;;;;;;11.47;5.70;;;15.10;99.90;;;;;;5092961;28;20884;-59
2023/06/15 04:47:41;;;;;;;9.37;6.00;;;15.20;99.90;;;;;;5081807;28;20202;-60
2023/06/15 04:50:13;;;;;;;7.73;6.17;;;15.30;99.90;;;;;;5086232;28;20274;-60
2023/06/15 04:52:41;;;;;;;7.30;5.77;;;15.40;99.90;;;;;;5073584;28;20653;-60
2023/06/15 04:55:11;;;;;;;6.93;5.23;;;15.40;99.90;;;;;;5073422;28;20256;-60
2023/06/15 04:57:40;;;;;;;8.80;5.93;;;15.50;99.90;;;;;;5074940;28;20225;-60
2023/06/15 05:00:10;;;;;;;7.63;6.07;;;15.60;99.90;;;;;;5091152;28;20715;-59
2023/06/15 05:02:39;;;;;;;7.53;5.97;;;15.70;99.90;;;;;;5073875;28;20212;-60
2023/06/15 05:05:09;;;;;;;7.27;5.90;;;15.80;99.90;;;;;;5087970;28;20316;-60
2023/06/15 05:07:37;;;;;;;6.23;5.63;;;15.80;99.90;;;;;;5088079;28;20563;-60
2023/06/15 05:10:07;;;;;;;8.50;6.50;;;15.90;99.90;;;;;;5085738;28;20231;-60
2023/06/15 05:12:35;;;;;;;6.53;5.83;;;16.00;99.90;;;;;;5090701;28;20716;-60
2023/06/15 05:15:04;;;;;;;10.57;6.17;;;16.10;99.90;;;;;;5090876;28;20674;-60
2023/06/15 05:17:32;;;;;;;10.20;6.50;;;16.20;99.90;;;;;;5083001;28;20224;-60
2023/06/15 05:20:05;;;;;;;8.00;6.40;;;16.30;99.90;;;;;;5081964;28;20629;-60
2023/06/15 05:22:33;;;;;;;7.73;5.80;;;16.40;99.90;;;;;;5091858;28;20217;-60
2023/06/15 05:25:04;;;;;;;6.30;5.50;;;16.60;99.90;;;;;;5079019;28;20321;-60
2023/06/15 05:27:35;;;;;;;9.53;5.83;;;16.70;99.90;;;;;;5080599;28;20602;-60
2023/06/15 05:30:04;;;;;;;8.00;5.57;;;16.80;99.90;;;;;;5086332;28;20354;-60
2023/06/15 05:32:37;;;;;;;10.03;6.17;;;16.90;99.90;;;;;;5082950;28;20217;-60
2023/06/15 05:35:08;;;;;;;8.33;6.13;;;17.00;99.90;;;;;;5079666;28;20232;-60
2023/06/15 05:37:37;;;;;;;9.73;6.63;;;17.20;99.90;;;;;;5083720;28;20212;-60
2023/06/15 05:40:07;;;;;;;9.13;6.20;;;17.30;99.90;;;;;;5075494;28;20231;-60
2023/06/15 05:42:36;;;;;;;9.00;6.60;;;17.50;99.90;;;;;;5083487;28;20224;-60
2023/06/15 05:45:05;;;;;;;6.23;5.63;;;17.50;99.90;;;;;;5089486;28;20188;-60
2023/06/15 05:47:33;;;;;;;8.07;6.03;;;17.70;99.90;;;;;;5063445;28;20216;-60
2023/06/15 05:50:01;;;;;;;5.90;5.17;;;17.70;99.90;;;;;;5083572;28;20257;-60
2023/06/15 05:52:31;;;;;;;6.67;5.80;;;17.80;99.90;;;;;;5081255;28;20673;-60
2023/06/15 05:54:59;;;;;;;6.30;5.70;;;17.90;99.90;;;;;;5083789;28;20223;-60
2023/06/15 05:57:28;;;;;;;7.43;5.70;;;18.00;99.90;;;;;;5081295;28;20226;-60
2023/06/15 05:59:56;;;;;;;10.87;5.70;;;18.20;99.90;;;;;;5089096;28;20192;-60
2023/06/15 06:02:25;;;;;;;9.70;5.40;;;18.30;99.90;;;;;;5076361;28;20224;-60
2023/06/15 06:04:54;;;;;;;7.57;5.83;;;18.50;99.90;;;;;;5080630;28;20751;-60
2023/06/15 06:07:22;;;;;;;7.57;5.27;;;18.60;99.90;;;;;;5079646;28;20222;-60
2023/06/15 06:09:52;;;;;;;7.90;5.33;;;18.80;99.90;;;;;;5077383;28;20246;-60
2023/06/15 06:12:20;;;;;;;5.90;5.37;;;18.90;99.90;;;;;;5084825;28;20195;-60
2023/06/15 06:14:49;;;;;;;6.70;5.53;;;19.00;99.90;;;;;;5096437;28;20198;-60
2023/06/15 06:17:17;;;;;;;5.93;5.10;;;19.20;99.90;;;;;;5085539;28;20211;-61
2023/06/15 06:19:51;;;;;;;7.43;4.43;;;19.30;99.90;;;;;;5084162;28;20221;-61
2023/06/15 06:22:20;;;;;;;6.30;4.83;;;19.50;99.90;;;;;;5093240;28;20231;-60
2023/06/15 06:24:48;;;;;;;4.70;4.30;;;19.70;99.90;;;;;;5095691;28;20227;-60
2023/06/15 06:27:18;;;;;;;7.37;4.70;;;19.90;99.90;;;;;;5089569;28;20192;-60
2023/06/15 06:29:46;;;;;;;6.90;4.70;;;20.00;99.90;;;;;;5091108;28;20214;-61
2023/06/15 06:32:14;;;;;;;5.80;4.37;;;20.10;99.90;;;;;;5091483;28;20224;-61
2023/06/15 06:34:43;;;;;;;5.90;4.40;;;20.30;99.90;;;;;;5095375;28;20647;-60
2023/06/15 06:37:11;;;;;;;7.53;4.00;;;20.40;99.90;;;;;;5095512;28;20219;-60
2023/06/15 06:39:39;;;;;;;4.77;4.27;;;20.60;99.90;;;;;;5088658;28;20310;-61
2023/06/15 06:42:10;;;;;;;3.73;3.53;;;20.80;99.90;;;;;;5095511;28;20187;-60
2023/06/15 06:44:40;;;;;;;4.33;3.93;;;20.90;99.90;;;;;;5094199;28;20207;-61
2023/06/15 06:47:08;;;;;;;4.33;4.00;;;21.00;99.90;;;;;;5091283;28;20231;-61
2023/06/15 06:49:37;;;;;;;4.07;3.47;;;21.20;99.90;;;;;;5092105;28;20216;-61
2023/06/15 06:52:06;;;;;;;5.80;3.47;;;21.20;99.90;;;;;;5087136;28;20706;-61
2023/06/15 06:54:35;;;;;;;7.17;4.07;;;21.30;99.90;;;;;;5079927;28;20230;-61
2023/06/15 06:57:03;;;;;;;3.80;3.50;;;21.50;99.90;;;;;;5093229;28;20214;-60
2023/06/15 06:59:32;;;;;;;4.87;3.27;;;21.60;99.90;;;;;;5094545;28;20230;-61
2023/06/15 07:02:13;;;;;;;6.50;3.50;;;21.70;99.90;;;;;;5095333;28;20229;-60
2023/06/15 07:04:42;;;;;;;4.40;3.43;;;21.80;99.90;;;;;;5078796;28;20223;-60
2023/06/15 07:07:10;;;;;;;3.47;3.27;;;21.80;99.90;;;;;;5085671;28;20219;-60
2023/06/15 07:09:38;;;;;;;3.63;3.40;;;22.00;99.90;;;;;;5084483;28;20314;-60
2023/06/15 07:12:08;;;;;;;3.30;3.10;;;22.20;99.90;;;;;;5095138;28;20187;-60
2023/06/15 07:14:36;;;;;;;7.17;3.27;;;22.40;99.90;;;;;;5082376;28;20298;-60
2023/06/15 07:17:05;;;;;;;3.30;3.10;;;22.40;99.90;;;;;;5093871;28;20242;-61
2023/06/15 07:19:35;;;;;;;3.37;3.17;;;22.60;99.90;;;;;;5087169;28;20231;-60
2023/06/15 07:22:04;;;;;;;4.53;3.30;;;22.60;99.90;;;;;;5090679;28;20222;-60
2023/06/15 07:24:32;;;;;;;4.87;2.83;;;22.60;99.90;;;;;;5094262;28;20227;-60
2023/06/15 07:27:01;;;;;;;5.13;2.80;;;22.80;99.90;;;;;;5094313;28;20222;-61
2023/06/15 07:29:30;;;;;;;2.87;2.67;;;23.00;99.90;;;;;;5086284;28;20232;-61
2023/06/15 07:31:58;;;;;;;4.80;3.17;;;23.10;99.90;;;;;;5087508;28;20219;-60
2023/06/15 07:34:26;;;;;;;2.77;2.40;;;23.30;99.90;;;;;;5090020;28;20589;-61
2023/06/15 07:36:56;;;;;;;3.13;2.60;;;23.30;99.90;;;;;;5085833;28;20730;-60
2023/06/15 07:39:24;;;;;;;2.97;2.77;;;23.40;99.90;;;;;;5093537;28;20196;-60
2023/06/15 07:41:53;;;;;;;2.73;2.63;;;23.40;99.90;;;;;;5091542;28;20188;-60
2023/06/15 07:44:21;;;;;;;2.73;2.57;;;23.40;99.90;;;;;;5085811;28;20226;-60
2023/06/15 07:46:49;;;;;;;3.17;2.70;;;23.50;99.90;;;;;;5091993;28;20219;-61
2023/06/15 07:49:18;;;;;;;3.87;2.60;;;23.60;99.90;;;;;;5093491;28;20287;-61
2023/06/15 07:52:01;;;;;;;3.07;2.83;;;23.80;99.90;;;;;;5092859;28;20269;-60
2023/06/15 07:54:38;;;;;;;3.17;2.90;;;24.20;99.90;;;;;;5081701;28;20234;-60
2023/06/15 07:57:09;;;;;;;7.33;2.87;;;24.30;99.90;;;;;;5090417;28;20188;-61
2023/06/15 07:59:37;;;;;;;3.20;2.60;;;24.30;99.90;;;;;;5078123;28;20220;-60
2023/06/15 08:02:06;;;;;;;3.63;2.83;;;24.40;99.90;;;;;;5066998;28;20230;-61
2023/06/15 08:04:34;;;;;;;4.80;2.90;;;24.50;99.90;;;;;;5077036;28;20234;-61
2023/06/15 08:07:04;;;;;;;4.00;2.50;;;24.50;99.90;;;;;;5091164;28;20714;-61
2023/06/15 08:09:32;;;;;;;2.73;2.63;;;24.80;99.90;;;;;;5085230;28;20220;-61
2023/06/15 08:12:01;;;;;;;2.60;2.30;;;24.90;99.90;;;;;;5089252;28;20215;-61
2023/06/15 08:14:29;;;;;;;3.93;2.40;;;25.10;99.90;;;;;;5069066;28;20217;-61
2023/06/15 08:16:58;;;;;;;2.67;2.47;;;25.00;99.90;;;;;;5087179;28;20259;-61
2023/06/15 08:19:27;;;;;;;2.80;2.53;;;25.00;99.90;;;;;;5085760;28;20596;-61
2023/06/15 08:21:55;;;;;;;5.63;2.63;;;25.10;99.90;;;;;;5085542;28;20240;-61
2023/06/15 08:24:25;;;;;;;4.53;2.77;;;25.20;99.90;;;;;;5081891;28;20197;-61
2023/06/15 08:26:56;;;;;;;3.83;2.67;;;25.40;99.90;;;;;;5089474;28;20240;-61
2023/06/15 08:29:25;;;;;;;4.50;2.53;;;25.40;99.90;;;;;;5081535;28;20253;-61
2023/06/15 08:31:53;;;;;;;3.20;2.67;;;25.30;99.90;;;;;;5086556;28;20584;-61
2023/06/15 08:34:21;;;;;;;2.40;2.30;;;25.40;99.90;;;;;;5080736;28;20219;-61
2023/06/15 08:36:50;;;;;;;3.30;2.57;;;25.40;99.90;;;;;;5089270;28;20233;-61
2023/06/15 08:39:18;;;;;;;3.97;2.50;;;25.50;99.90;;;;;;5088220;28;20183;-60
2023/06/15 08:41:48;;;;;;;2.90;2.80;;;25.50;99.90;;;;;;5088002;28;20203;-61
2023/06/15 08:44:19;;;;;;;2.90;2.70;;;25.50;99.90;;;;;;5086641;28;20644;-61
2023/06/15 08:46:48;;;;;;;3.40;2.67;;;25.50;99.90;;;;;;5071619;28;20217;-61
2023/06/15 08:49:16;;;;;;;2.90;2.70;;;25.60;99.90;;;;;;5074652;28;20218;-61
2023/06/15 08:51:45;;;;;;;2.53;2.43;;;25.60;99.90;;;;;;5087216;28;20237;-61
2023/06/15 08:54:14;;;;;;;3.80;2.87;;;25.70;99.90;;;;;;5076826;28;20283;-60
2023/06/15 08:56:42;;;;;;;5.23;3.10;;;25.90;99.90;;;;;;5087100;28;20194;-61
2023/06/15 08:59:12;;;;;;;3.20;2.73;;;25.90;99.90;;;;;;5084482;28;20227;-61
2023/06/15 09:01:43;;;;;;;2.80;2.60;;;25.90;99.90;;;;;;5089043;28;20306;-61
2023/06/15 09:04:12;;;;;;;3.90;3.13;;;26.00;99.90;;;;;;5085919;28;20216;-61
2023/06/15 09:06:41;;;;;;;3.10;2.80;;;26.10;99.90;;;;;;5085581;28;20223;-61
2023/06/15 09:09:10;;;;;;;3.20;3.00;;;26.30;99.90;;;;;;5078807;28;20188;-60
2023/06/15 09:11:40;;;;;;;2.60;2.50;;;26.30;99.90;;;;;;5085239;28;20203;-61
2023/06/15 09:14:12;;;;;;;6.50;3.00;;;26.50;99.90;;;;;;5083045;28;20227;-61
2023/06/15 09:16:42;;;;;;;2.80;2.60;;;26.50;99.90;;;;;;5072407;28;20539;-61
2023/06/15 09:19:11;;;;;;;4.77;2.50;;;26.50;99.90;;;;;;5078308;28;20250;-62
2023/06/15 09:21:50;;;;;;;4.23;2.80;;;26.70;99.90;;;;;;5087059;28;20226;-61
2023/06/15 09:24:22;;;;;;;6.33;2.90;;;26.70;99.90;;;;;;5086895;28;20267;-61
2023/06/15 09:26:51;;;;;;;3.13;2.90;;;26.80;99.90;;;;;;5084847;28;20187;-61
2023/06/15 09:29:21;;;;;;;2.60;2.50;;;26.90;99.90;;;;;;5091277;28;20223;-62
2023/06/15 09:31:49;;;;;;;3.63;2.73;;;27.00;99.90;;;;;;5075649;28;20881;-61
2023/06/15 09:34:18;;;;;;;2.50;2.30;;;27.10;99.90;;;;;;5071834;28;20224;-61
2023/06/15 09:36:48;;;;;;;2.70;2.60;;;27.10;99.90;;;;;;5087636;28;20657;-61
2023/06/15 09:39:22;;;;;;;4.57;2.63;;;27.20;99.90;;;;;;5090157;28;20195;-62
2023/06/15 09:41:52;;;;;;;4.73;3.00;;;27.30;99.90;;;;;;5089895;28;20637;-62
2023/06/15 09:44:23;;;;;;;2.73;2.63;;;27.40;99.90;;;;;;5090582;28;20306;-61
2023/06/15 09:46:52;;;;;;;3.13;2.90;;;27.30;99.90;;;;;;5094263;28;20620;-61
2023/06/15 09:49:22;;;;;;;3.03;2.72;;;27.40;99.90;;;;;;5092202;28;20233;-62
2023/06/15 09:51:51;;;;;;;3.20;2.80;;;27.50;99.90;;;;;;5084248;28;20324;-61
2023/06/15 09:54:21;;;;;;;2.58;2.47;;;27.50;99.90;;;;;;5091255;28;20207;-61
2023/06/15 09:56:51;;;;;;;2.78;2.35;;;27.50;99.90;;;;;;5093253;28;20184;-62
2023/06/15 09:59:20;;;;;;;5.05;2.75;;;27.60;99.90;;;;;;5074593;28;20226;-61
2023/06/15 10:01:51;;;;;;;2.50;2.40;;;27.70;99.90;;;;;;5072073;28;20310;-61
2023/06/15 10:04:24;;;;;;;2.40;2.30;;;27.80;99.90;;;;;;5071141;28;20220;-61
2023/06/15 10:06:57;;;;;;;2.88;2.42;;;27.80;99.90;;;;;;5073861;28;20245;-61
2023/06/15 10:09:28;;;;;;;2.95;2.63;;;27.80;99.90;;;;;;5075429;28;20199;-61
2023/06/15 10:12:02;;;;;;;2.85;2.70;;;28.00;99.90;;;;;;5086103;28;20209;-61
2023/06/15 10:14:35;;;;;;;3.58;2.90;;;27.90;99.90;;;;;;5083380;28;20245;-61
2023/06/15 10:17:10;;;;;;;3.60;2.90;;;28.00;99.90;;;;;;5086739;28;20224;-62
2023/06/15 10:19:43;;;;;;;3.42;2.47;;;28.20;99.90;;;;;;5085369;28;20303;-61
2023/06/15 10:22:17;;;;;;;2.85;2.75;;;28.40;99.90;;;;;;5090988;28;20231;-61
2023/06/15 10:24:46;;;;;;;2.70;2.60;;;28.30;99.90;;;;;;5082361;28;20298;-61
2023/06/15 10:27:15;;;;;;;2.63;2.42;;;28.40;99.90;;;;;;5086589;28;20194;-60
2023/06/15 10:30:01;;;;;;;4.10;2.95;;;28.40;99.90;;;;;;5082944;28;20186;-61
2023/06/15 10:32:40;;;;;;;4.10;2.47;;;28.60;99.90;;;;;;5088219;28;20216;-61
2023/06/15 10:35:16;;;;;;;2.80;2.60;;;28.50;99.00;;;;;;5088610;28;20224;-61
2023/06/15 10:37:57;;;;;;;6.03;2.70;;;28.50;99.90;;;;;;5090443;28;20941;-61
2023/06/15 10:40:29;;;;;;;2.80;2.60;;;28.80;99.90;;;;;;5085255;28;20230;-61
2023/06/15 10:43:02;;;;;;;2.65;2.45;;;29.00;99.30;;;;;;5090034;28;20245;-62
2023/06/15 10:45:32;;;;;;;4.25;2.53;;;29.00;98.60;;;;;;5093247;28;20304;-62
2023/06/15 10:48:06;;;;;;;7.60;2.75;;;29.20;97.70;;;;;;5085739;28;20205;-61
2023/06/15 10:50:48;;;;;;;2.67;2.42;;;29.00;97.10;;;;;;5063957;28;20636;-61
2023/06/15 10:53:24;;;;;;;2.95;2.67;;;29.00;98.90;;;;;;5087477;28;20242;-61
2023/06/15 10:55:55;;;;;;;2.78;2.67;;;28.90;97.70;;;;;;5068245;28;20230;-61
2023/06/15 10:58:26;;;;;;;3.00;2.80;;;29.00;98.20;;;;;;5068062;28;20310;-61
2023/06/15 11:01:10;;;;;;;4.18;2.60;;;29.00;98.20;;;;;;5066986;28;20821;-61
2023/06/15 11:03:42;;;;;;;3.55;2.60;;;29.20;97.10;;;;;;5072610;28;20229;-61
2023/06/15 11:06:15;;;;;;;2.90;2.70;;;29.30;96.60;;;;;;5090140;28;20214;-61
2023/06/15 11:08:48;;;;;;;2.78;2.58;;;29.50;98.00;;;;;;5087148;28;20632;-61
2023/06/15 11:11:19;;;;;;;2.70;2.42;;;29.70;96.10;;;;;;5085893;28;20249;-59
2023/06/15 11:13:59;;;;;;;3.45;2.80;;;29.70;96.80;;;;;;5090006;28;20227;-59
2023/06/15 11:16:30;;;;;;;13.15;2.75;;;29.70;97.30;;;;;;5086279;28;20220;-59
2023/06/15 11:19:24;;;;;;;4.53;2.47;;;29.70;96.50;;;;;;5088214;28;20213;-59
2023/06/15 11:21:59;;;;;;;2.70;2.60;;;29.80;96.00;;;;;;5080679;28;20307;-59
2023/06/15 11:24:29;;;;;;;6.35;2.50;;;30.00;96.00;;;;;;5084064;28;20346;-59
2023/06/15 11:27:03;;;;;;;6.38;2.70;;;29.90;94.30;;;;;;5093821;28;20198;-59
2023/06/15 11:29:34;;;;;;;2.60;2.40;;;29.70;95.80;;;;;;5075182;28;20218;-59
2023/06/15 11:32:03;;;;;;;4.53;3.03;;;29.60;95.20;;;;;;5089149;28;20219;-59
2023/06/15 11:34:33;;;;;;;9.38;2.95;;;29.30;93.90;;;;;;5079581;28;20580;-59
2023/06/15 11:37:02;;;;;;;5.57;2.75;;;29.30;95.00;;;;;;5082556;28;20231;-59
2023/06/15 11:39:31;;;;;;;3.95;2.58;;;29.60;96.50;;;;;;5082935;28;20227;-59
2023/06/15 11:42:00;;;;;;;2.80;2.70;;;29.70;95.20;;;;;;5067838;28;20211;-59
2023/06/15 11:44:29;;;;;;;3.90;2.75;;;29.80;95.00;;;;;;5083937;28;20726;-59
2023/06/15 11:46:59;;;;;;;3.25;3.05;;;29.70;95.80;;;;;;5080324;28;20220;-59
2023/06/15 11:49:35;;;;;;;3.50;2.75;;;30.10;97.30;;;;;;5090380;28;20881;-59
2023/06/15 11:52:04;;;;;;;7.65;2.72;;;30.20;95.80;;;;;;5086918;28;20250;-59
2023/06/15 11:54:32;;;;;;;5.22;2.65;;;30.20;94.50;;;;;;5091940;28;20229;-61
2023/06/15 11:57:20;;;;;;;4.53;2.72;;;30.30;95.80;;;;;;5085577;28;20193;-62
2023/06/15 11:59:49;;;;;;;3.10;2.80;;;30.30;94.30;;;;;;5082395;28;20288;-62
2023/06/15 12:02:17;;;;;;;5.50;3.08;;;30.20;93.00;;;;;;5090428;28;20829;-61
2023/06/15 12:04:49;;;;;;;2.90;2.80;;;30.10;94.90;;;;;;5084496;28;20221;-61
2023/06/15 12:07:18;;;;;;;6.03;2.85;;;30.30;94.00;;;;;;5090235;28;20737;-61
2023/06/15 12:09:50;;;;;;;3.00;2.80;;;30.20;94.00;;;;;;5084851;28;20222;-61
2023/06/15 12:12:31;;;;;;;7.30;2.90;;;30.30;94.60;;;;;;5068158;28;20199;-62
2023/06/15 12:15:00;;;;;;;3.30;3.00;;;30.30;93.90;;;;;;5089213;28;20202;-62
2023/06/15 12:17:31;;;;;;;3.70;3.28;;;29.80;93.00;;;;;;5086211;28;20559;-61
2023/06/15 12:20:03;;;;;;;4.45;2.95;;;29.50;94.00;;;;;;5082267;28;20706;-61
2023/06/15 12:22:36;;;;;;;3.03;2.83;;;29.20;93.90;;;;;;5089883;28;20217;-61
2023/06/15 12:25:10;;;;;;;3.88;2.92;;;28.90;94.50;;;;;;5082796;28;20670;-61
2023/06/15 12:27:45;;;;;;;3.75;3.03;;;29.00;93.90;;;;;;5086538;28;20219;-61
2023/06/15 12:30:16;;;;;;;8.25;2.90;;;29.10;93.80;;;;;;5086470;28;20186;-61
2023/06/15 12:32:46;;;;;;;3.30;3.10;;;29.20;95.50;;;;;;5091925;28;20577;-60
2023/06/15 12:35:38;;;;;;;4.18;2.95;;;29.00;95.00;;;;;;5083893;28;20286;-61
2023/06/15 12:38:07;;;;;;;4.93;2.78;;;28.70;93.30;;;;;;5081965;28;20211;-61
2023/06/15 12:40:39;;;;;;;3.28;3.00;;;28.40;93.10;;;;;;5088074;28;20291;-61
2023/06/15 12:43:08;;;;;;;5.13;3.33;;;28.10;94.40;;;;;;5077160;28;20229;-61
2023/06/15 12:45:37;;;;;;;2.88;2.58;;;28.20;94.90;;;;;;5071884;28;20318;-61
2023/06/15 12:48:07;;;;;;;7.18;2.97;;;28.60;95.50;;;;;;5088425;28;20234;-61
2023/06/15 12:50:37;;;;;;;4.30;2.80;;;28.90;94.70;;;;;;5085351;28;20270;-61
2023/06/15 12:53:06;;;;;;;3.17;3.00;;;29.40;94.80;;;;;;5089490;28;20249;-61
2023/06/15 12:55:35;;;;;;;2.90;2.80;;;29.50;92.50;;;;;;5083635;28;20221;-61
2023/06/15 12:58:04;;;;;;;3.35;3.03;;;29.20;93.70;;;;;;5090910;28;20211;-61
2023/06/15 13:00:32;;;;;;;3.00;2.70;;;28.90;93.50;;;;;;5080240;28;20221;-61